createdAt,value
2023-02-17T00:00:12.025Z,17.80
2023-02-17T00:02:41.229Z,18.17
2023-02-17T00:05:09.784Z,18.17
2023-02-17T00:07:38.189Z,18.17
2023-02-17T00:10:09.438Z,17.00
2023-02-17T00:12:38.245Z,17.07
2023-02-17T00:15:08.759Z,16.17
2023-02-17T00:17:38.700Z,15.87
2023-02-17T00:20:08.472Z,15.73
2023-02-17T00:22:37.597Z,16.63
2023-02-17T00:25:06.472Z,16.57
2023-02-17T00:27:35.674Z,16.60
2023-02-17T00:30:04.362Z,15.00
2023-02-17T00:32:34.163Z,16.90
2023-02-17T00:35:02.495Z,16.77
2023-02-17T00:37:30.802Z,15.00
2023-02-17T00:39:59.066Z,15.83
2023-02-17T00:42:27.546Z,15.00
2023-02-17T00:44:55.889Z,15.47
2023-02-17T00:47:24.415Z,15.47
2023-02-17T00:49:54.083Z,15.60
2023-02-17T00:52:22.410Z,15.17
2023-02-17T00:54:50.865Z,15.10
2023-02-17T00:57:19.357Z,15.10
2023-02-17T00:59:47.690Z,14.77
2023-02-17T01:02:16.958Z,15.43
2023-02-17T01:04:45.316Z,15.27
2023-02-17T01:07:17.977Z,15.07
2023-02-17T01:09:48.622Z,14.67
2023-02-17T01:12:17.403Z,14.77
2023-02-17T01:14:45.793Z,15.40
2023-02-17T01:17:14.125Z,13.80
2023-02-17T01:19:42.513Z,14.47
2023-02-17T01:22:11.529Z,15.03
2023-02-17T01:24:41.755Z,15.47
2023-02-17T01:27:10.294Z,14.83
2023-02-17T01:29:38.678Z,15.33
2023-02-17T01:32:07.180Z,14.63
2023-02-17T01:34:35.610Z,14.43
2023-02-17T01:37:04.016Z,14.97
2023-02-17T01:39:32.489Z,13.60
2023-02-17T01:42:02.168Z,14.53
2023-02-17T01:44:33.832Z,14.23
2023-02-17T01:47:02.244Z,13.87
2023-02-17T01:49:34.238Z,14.47
2023-02-17T01:52:08.512Z,14.07
2023-02-17T01:54:43.554Z,13.57
2023-02-17T01:57:16.125Z,13.80
2023-02-17T01:59:45.504Z,13.30
2023-02-17T02:02:14.246Z,12.33
2023-02-17T02:04:46.369Z,12.87
2023-02-17T02:07:18.770Z,13.03
2023-02-17T02:09:52.733Z,13.73
2023-02-17T02:12:25.038Z,13.80
2023-02-17T02:14:56.094Z,13.53
2023-02-17T02:17:37.073Z,13.20
2023-02-17T02:20:37.516Z,12.80
2023-02-17T02:23:30.573Z,12.33
2023-02-17T02:26:28.558Z,12.27
2023-02-17T02:29:24.352Z,12.17
2023-02-17T02:32:05.806Z,11.63
2023-02-17T02:34:40.968Z,11.27
2023-02-17T02:37:15.194Z,11.60
2023-02-17T02:39:47.953Z,11.23
2023-02-17T02:42:21.491Z,11.80
2023-02-17T02:44:50.352Z,12.67
2023-02-17T02:47:52.586Z,12.10
2023-02-17T02:50:38.920Z,12.63
2023-02-17T02:53:27.247Z,11.67
2023-02-17T02:56:04.145Z,11.77
2023-02-17T02:58:43.195Z,11.43
2023-02-17T03:01:18.388Z,11.30
2023-02-17T03:03:55.472Z,11.57
2023-02-17T03:06:32.380Z,12.17
2023-02-17T03:09:06.164Z,11.27
2023-02-17T03:11:34.654Z,11.30
2023-02-17T03:14:07.126Z,11.03
2023-02-17T03:16:36.647Z,10.73
2023-02-17T03:19:05.290Z,11.27
2023-02-17T03:21:40.149Z,10.63
2023-02-17T03:24:09.868Z,11.53
2023-02-17T03:26:38.209Z,11.60
2023-02-17T03:29:06.703Z,11.23
2023-02-17T03:31:36.021Z,11.07
2023-02-17T03:34:04.474Z,10.80
2023-02-17T03:36:32.968Z,10.93
2023-02-17T03:39:02.839Z,10.50
2023-02-17T03:41:31.264Z,11.20
2023-02-17T03:43:59.645Z,10.90
2023-02-17T03:46:27.990Z,10.00
2023-02-17T03:48:56.748Z,10.30
2023-02-17T03:51:26.154Z,10.33
2023-02-17T03:53:54.899Z,10.47
2023-02-17T03:56:25.082Z,10.67
2023-02-17T03:58:54.338Z,10.33
2023-02-17T04:01:23.167Z,10.80
2023-02-17T04:03:52.763Z,10.90
2023-02-17T04:06:21.348Z,10.17
2023-02-17T04:08:49.817Z,11.07
2023-02-17T04:11:18.155Z,10.40
2023-02-17T04:13:48.158Z,9.57
2023-02-17T04:16:16.680Z,9.83
2023-02-17T04:18:45.159Z,10.00
2023-02-17T04:21:14.013Z,11.10
2023-02-17T04:23:42.426Z,10.60
2023-02-17T04:26:11.036Z,10.23
2023-02-17T04:28:40.287Z,10.00
2023-02-17T04:31:10.606Z,9.70
2023-02-17T04:33:39.096Z,9.50
2023-02-17T04:36:07.999Z,10.43
2023-02-17T04:38:36.618Z,10.40
2023-02-17T04:41:06.303Z,10.23
2023-02-17T04:43:34.978Z,10.50
2023-02-17T04:46:03.630Z,10.07
2023-02-17T04:48:33.465Z,12.70
2023-02-17T04:51:01.846Z,10.00
2023-02-17T04:53:30.223Z,10.23
2023-02-17T04:55:58.660Z,10.17
2023-02-17T04:58:27.080Z,9.60
2023-02-17T05:00:55.482Z,9.50
2023-02-17T05:03:23.927Z,10.83
2023-02-17T05:05:53.660Z,9.17
2023-02-17T05:08:22.391Z,9.90
2023-02-17T05:10:52.057Z,11.70
2023-02-17T05:13:20.948Z,10.40
2023-02-17T05:15:49.373Z,10.23
2023-02-17T05:18:19.378Z,9.90
2023-02-17T05:20:47.681Z,9.27
2023-02-17T05:23:17.494Z,9.20
2023-02-17T05:25:46.280Z,10.20
2023-02-17T05:28:14.706Z,9.30
2023-02-17T05:30:43.183Z,9.70
2023-02-17T05:33:11.742Z,10.87
2023-02-17T05:35:40.048Z,11.73
2023-02-17T05:38:08.470Z,10.70
2023-02-17T05:40:38.162Z,10.30
2023-02-17T05:43:06.563Z,9.90
2023-02-17T05:45:34.872Z,9.53
2023-02-17T05:48:03.321Z,9.67
2023-02-17T05:50:31.672Z,10.47
2023-02-17T05:53:04.387Z,10.73
2023-02-17T05:55:35.308Z,9.60
2023-02-17T05:58:05.079Z,10.27
2023-02-17T06:00:33.487Z,9.47
2023-02-17T06:03:01.861Z,9.57
2023-02-17T06:05:31.180Z,9.27
2023-02-17T06:07:59.770Z,10.27
2023-02-17T06:10:28.226Z,10.53
2023-02-17T06:12:56.601Z,9.87
2023-02-17T06:15:26.944Z,9.77
2023-02-17T06:17:55.311Z,10.07
2023-02-17T06:20:23.912Z,11.13
2023-02-17T06:22:52.327Z,10.03
2023-02-17T06:25:20.916Z,11.00
2023-02-17T06:27:49.332Z,10.13
2023-02-17T06:30:18.051Z,10.00
2023-02-17T06:32:47.881Z,8.93
2023-02-17T06:35:17.644Z,9.53
2023-02-17T06:37:46.026Z,9.33
2023-02-17T06:40:15.321Z,10.23
2023-02-17T06:42:43.762Z,9.37
2023-02-17T06:45:12.269Z,10.23
2023-02-17T06:47:40.670Z,9.27
2023-02-17T06:50:12.004Z,9.37
2023-02-17T06:52:40.440Z,9.47
2023-02-17T06:55:09.878Z,9.33
2023-02-17T06:57:38.328Z,9.70
2023-02-17T07:00:08.083Z,10.37
2023-02-17T07:02:39.165Z,11.80
2023-02-17T07:05:09.016Z,10.17
2023-02-17T07:07:38.780Z,8.93
2023-02-17T07:10:08.450Z,8.80
2023-02-17T07:12:36.839Z,9.33
2023-02-17T07:15:05.475Z,9.60
2023-02-17T07:17:33.886Z,9.60
2023-02-17T07:20:02.527Z,9.80
2023-02-17T07:22:30.957Z,10.53
2023-02-17T07:25:00.740Z,9.50
2023-02-17T07:27:29.281Z,10.30
2023-02-17T07:29:57.698Z,9.90
2023-02-17T07:32:26.129Z,10.30
2023-02-17T07:34:54.523Z,9.10
2023-02-17T07:37:22.873Z,10.20
2023-02-17T07:39:52.469Z,11.83
2023-02-17T07:42:22.242Z,9.40
2023-02-17T07:44:50.654Z,9.23
2023-02-17T07:47:19.043Z,10.10
2023-02-17T07:49:47.382Z,9.80
2023-02-17T07:52:18.003Z,11.73
2023-02-17T07:54:46.462Z,9.77
2023-02-17T07:57:14.837Z,9.80
2023-02-17T07:59:47.071Z,9.37
2023-02-17T08:02:15.554Z,10.17
2023-02-17T08:04:44.145Z,11.07
2023-02-17T08:07:12.493Z,12.23
2023-02-17T08:09:58.455Z,11.27
2023-02-17T08:12:56.020Z,11.00
2023-02-17T08:15:26.040Z,11.50
2023-02-17T08:17:54.439Z,11.57
2023-02-17T08:20:22.817Z,12.87
2023-02-17T08:22:51.220Z,11.60
2023-02-17T08:25:19.792Z,14.07
2023-02-17T08:27:48.202Z,13.67
2023-02-17T08:30:16.703Z,13.63
2023-02-17T08:32:48.712Z,13.43
2023-02-17T08:35:19.236Z,12.27
2023-02-17T08:37:47.610Z,15.63
2023-02-17T08:40:16.527Z,12.10
2023-02-17T08:42:44.975Z,11.97
2023-02-17T08:45:14.792Z,11.27
2023-02-17T08:47:43.506Z,11.90
2023-02-17T08:50:17.272Z,11.50
2023-02-17T08:52:45.732Z,11.53
2023-02-17T08:55:14.211Z,12.00
2023-02-17T08:57:42.795Z,17.80
2023-02-17T09:00:13.397Z,12.63
2023-02-17T09:02:43.600Z,11.50
2023-02-17T09:05:14.164Z,13.40
2023-02-17T09:07:42.708Z,12.50
2023-02-17T09:10:12.244Z,12.93
2023-02-17T09:12:41.737Z,14.10
2023-02-17T09:15:10.951Z,13.27
2023-02-17T09:17:41.376Z,12.77
2023-02-17T09:20:23.977Z,11.83
2023-02-17T09:22:55.744Z,11.97
2023-02-17T09:25:24.320Z,11.37
2023-02-17T09:27:52.786Z,11.17
2023-02-17T09:30:21.369Z,12.53
2023-02-17T09:32:49.760Z,11.17
2023-02-17T09:35:19.635Z,12.80
2023-02-17T09:37:48.173Z,11.60
2023-02-17T09:40:21.600Z,12.37
2023-02-17T09:42:50.736Z,11.13
2023-02-17T09:45:23.583Z,10.90
2023-02-17T09:47:56.280Z,11.30
2023-02-17T09:50:30.243Z,11.03
2023-02-17T09:53:04.531Z,10.43
2023-02-17T09:55:40.229Z,11.47
2023-02-17T09:58:12.793Z,10.63
2023-02-17T10:00:44.974Z,10.63
2023-02-17T10:03:18.617Z,6.10
2023-02-17T10:05:53.053Z,6.90
2023-02-17T10:08:24.826Z,7.30
2023-02-17T10:10:59.059Z,7.83
2023-02-17T10:13:31.553Z,9.33
2023-02-17T10:16:05.859Z,8.37
2023-02-17T10:18:40.701Z,12.53
2023-02-17T10:21:13.209Z,9.17
2023-02-17T10:23:41.977Z,6.37
2023-02-17T10:26:20.929Z,8.57
2023-02-17T10:28:55.038Z,8.20
2023-02-17T10:31:37.270Z,10.97
2023-02-17T10:34:13.192Z,8.27
2023-02-17T10:36:54.758Z,7.10
2023-02-17T10:39:38.519Z,7.87
2023-02-17T10:42:15.735Z,11.70
2023-02-17T10:44:44.511Z,4.67
2023-02-17T10:47:14.984Z,4.13
2023-02-17T10:49:47.048Z,4.80
2023-02-17T10:52:18.851Z,4.37
2023-02-17T10:54:54.001Z,4.07
2023-02-17T10:57:27.584Z,4.30
2023-02-17T10:59:57.156Z,4.00
2023-02-17T11:02:34.573Z,3.80
2023-02-17T11:05:03.072Z,3.70
2023-02-17T11:07:36.150Z,4.10
2023-02-17T11:10:21.487Z,4.30
2023-02-17T11:12:51.984Z,4.27
2023-02-17T11:15:23.064Z,4.70
2023-02-17T11:17:51.896Z,4.10
2023-02-17T11:20:35.574Z,5.07
2023-02-17T11:23:24.109Z,5.23
2023-02-17T11:26:02.266Z,4.53
2023-02-17T11:28:32.144Z,5.40
2023-02-17T11:31:03.015Z,6.30
2023-02-17T11:33:34.555Z,4.73
2023-02-17T11:36:04.281Z,5.00
2023-02-17T11:38:43.512Z,5.17
2023-02-17T11:41:12.080Z,6.40
2023-02-17T11:43:53.994Z,6.10
2023-02-17T11:46:31.634Z,6.80
2023-02-17T11:49:22.583Z,7.43
2023-02-17T11:52:02.608Z,4.90
2023-02-17T11:54:37.334Z,4.93
2023-02-17T11:57:23.626Z,5.70
2023-02-17T12:00:05.818Z,6.10
2023-02-17T12:03:37.730Z,5.40
2023-02-17T12:06:12.646Z,6.50
2023-02-17T12:08:55.806Z,5.63
2023-02-17T12:11:33.600Z,5.93
2023-02-17T12:14:14.318Z,6.50
2023-02-17T12:16:53.290Z,6.37
2023-02-17T12:19:39.222Z,6.60
2023-02-17T12:22:18.482Z,5.60
2023-02-17T12:24:59.821Z,5.13
2023-02-17T12:27:42.121Z,6.07
2023-02-17T12:30:27.632Z,6.83
2023-02-17T12:33:13.287Z,5.90
2023-02-17T12:35:51.090Z,4.20
2023-02-17T12:38:26.450Z,4.53
2023-02-17T12:41:04.152Z,5.23
2023-02-17T12:43:40.287Z,4.40
2023-02-17T12:46:13.001Z,5.63
2023-02-17T12:48:49.233Z,5.50
2023-02-17T12:51:24.344Z,4.83
2023-02-17T12:53:56.445Z,5.03
2023-02-17T12:57:01.195Z,4.50
2023-02-17T12:59:35.614Z,6.53
2023-02-17T13:02:06.432Z,5.63
2023-02-17T13:04:36.933Z,4.87
2023-02-17T13:07:21.050Z,5.60
2023-02-17T13:09:51.599Z,5.97
2023-02-17T13:12:35.362Z,6.10
2023-02-17T13:15:07.112Z,6.20
2023-02-17T13:17:39.825Z,6.10
2023-02-17T13:20:28.494Z,6.53
2023-02-17T13:23:08.649Z,5.67
2023-02-17T13:25:38.757Z,6.43
2023-02-17T13:28:35.258Z,5.70
2023-02-17T13:31:17.841Z,6.30
2023-02-17T13:33:49.870Z,6.20
2023-02-17T13:36:23.374Z,8.10
2023-02-17T13:39:01.764Z,5.80
2023-02-17T13:41:34.654Z,5.30
2023-02-17T13:44:27.158Z,5.70
2023-02-17T13:46:59.928Z,5.70
2023-02-17T13:49:33.025Z,6.20
2023-02-17T13:52:19.155Z,6.80
2023-02-17T13:54:56.072Z,8.97
2023-02-17T13:57:29.921Z,8.63
2023-02-17T14:00:12.784Z,8.80
2023-02-17T14:02:48.300Z,5.90
2023-02-17T14:05:22.332Z,5.70
2023-02-17T14:07:53.843Z,5.43
2023-02-17T14:10:25.592Z,5.43
2023-02-17T14:12:54.794Z,5.00
2023-02-17T14:15:25.424Z,5.27
2023-02-17T14:17:54.767Z,5.00
2023-02-17T14:20:29.048Z,5.77
2023-02-17T14:23:07.403Z,5.70
2023-02-17T14:25:37.636Z,5.30
2023-02-17T14:28:17.714Z,6.60
2023-02-17T14:30:46.259Z,5.83
2023-02-17T14:33:22.830Z,5.37
2023-02-17T14:35:53.617Z,5.40
2023-02-17T14:38:26.396Z,4.63
2023-02-17T14:40:56.231Z,5.13
2023-02-17T14:43:24.872Z,5.27
2023-02-17T14:45:53.381Z,5.30
2023-02-17T14:48:21.751Z,5.00
2023-02-17T14:50:50.633Z,5.10
2023-02-17T14:53:25.862Z,5.63
2023-02-17T14:55:59.983Z,6.17
2023-02-17T14:58:29.424Z,6.00
2023-02-17T15:00:58.104Z,5.40
2023-02-17T15:03:26.635Z,4.40
2023-02-17T15:05:55.542Z,5.27
2023-02-17T15:08:32.023Z,6.20
2023-02-17T15:11:00.590Z,6.60
2023-02-17T15:13:29.065Z,5.80
2023-02-17T15:15:59.125Z,7.77
2023-02-17T15:18:28.238Z,7.60
2023-02-17T15:20:56.814Z,7.87
2023-02-17T15:23:26.924Z,7.70
2023-02-17T15:25:56.839Z,7.80
2023-02-17T15:28:25.301Z,8.13
2023-02-17T15:30:56.326Z,6.70
2023-02-17T15:33:25.860Z,6.57
2023-02-17T15:35:55.611Z,7.50
2023-02-17T15:38:25.083Z,8.37
2023-02-17T15:40:58.812Z,7.63
2023-02-17T15:46:12.155Z,9.40
2023-02-17T15:48:40.845Z,11.40
2023-02-17T15:51:12.331Z,12.07
2023-02-17T15:53:40.853Z,12.07
2023-02-17T15:56:15.564Z,13.00
2023-02-17T15:58:44.189Z,12.70
2023-02-17T16:01:23.351Z,14.03
2023-02-17T16:03:51.722Z,14.53
2023-02-17T16:06:20.087Z,16.90
2023-02-17T16:08:48.733Z,16.53
2023-02-17T16:11:19.125Z,13.17
2023-02-17T16:13:49.068Z,14.27
2023-02-17T16:16:20.648Z,12.47
2023-02-17T16:18:49.602Z,11.17
2023-02-17T16:21:18.964Z,10.83
2023-02-17T16:23:47.502Z,12.20
2023-02-17T16:26:23.904Z,12.47
2023-02-17T16:28:52.496Z,12.40
2023-02-17T16:31:21.214Z,11.63
2023-02-17T16:33:49.654Z,12.73
2023-02-17T16:36:21.412Z,13.47
2023-02-17T16:38:51.733Z,14.00
2023-02-17T16:41:22.194Z,13.57
2023-02-17T16:43:50.598Z,13.87
2023-02-17T16:46:24.081Z,14.13
2023-02-17T16:48:52.829Z,17.13
2023-02-17T16:51:21.158Z,16.13
2023-02-17T16:53:49.835Z,15.30
2023-02-17T16:56:21.133Z,18.10
2023-02-17T16:58:51.012Z,18.27
2023-02-17T17:01:19.352Z,15.33
2023-02-17T17:03:47.894Z,17.67
2023-02-17T17:06:23.920Z,19.00
2023-02-17T17:08:52.891Z,20.53
2023-02-17T17:11:23.897Z,19.53
2023-02-17T17:13:53.942Z,17.70
2023-02-17T17:16:24.620Z,18.87
2023-02-17T17:18:53.257Z,19.97
2023-02-17T17:21:22.270Z,18.33
2023-02-17T17:23:51.822Z,16.40
2023-02-17T17:26:25.114Z,17.33
2023-02-17T17:28:56.372Z,19.67
2023-02-17T17:31:25.436Z,17.17
2023-02-17T17:33:54.937Z,16.53
2023-02-17T17:36:26.615Z,15.03
2023-02-17T17:38:56.212Z,16.93
2023-02-17T17:41:26.438Z,15.80
2023-02-17T17:43:57.470Z,15.43
2023-02-17T17:46:29.517Z,13.80
2023-02-17T17:48:58.853Z,14.77
2023-02-17T17:51:28.332Z,13.87
2023-02-17T17:53:57.075Z,13.10
2023-02-17T17:56:27.843Z,13.23
2023-02-17T17:58:58.518Z,14.23
2023-02-17T18:01:27.363Z,14.50
2023-02-17T18:03:57.361Z,14.77
2023-02-17T18:06:29.307Z,15.27
2023-02-17T18:09:02.812Z,15.70
2023-02-17T18:11:32.216Z,16.80
2023-02-17T18:14:05.584Z,16.73
2023-02-17T18:16:35.220Z,18.20
2023-02-17T18:19:05.459Z,19.43
2023-02-17T18:21:34.400Z,20.83
2023-02-17T18:24:02.968Z,21.00
2023-02-17T18:26:31.458Z,19.87
2023-02-17T18:29:03.651Z,21.47
2023-02-17T18:31:32.222Z,19.67
2023-02-17T18:34:00.685Z,19.93
2023-02-17T18:36:29.183Z,20.87
2023-02-17T18:38:57.553Z,20.13
2023-02-17T18:41:30.296Z,20.80
2023-02-17T18:44:00.219Z,20.07
2023-02-17T18:46:30.569Z,20.90
2023-02-17T18:48:59.234Z,21.03
2023-02-17T18:51:27.838Z,22.83
2023-02-17T18:53:57.482Z,23.13
2023-02-17T18:56:28.845Z,22.87
2023-02-17T18:58:58.055Z,21.57
2023-02-17T19:01:29.221Z,21.60
2023-02-17T19:04:01.030Z,20.63
2023-02-17T19:06:34.531Z,20.20
2023-02-17T19:09:04.874Z,20.63
2023-02-17T19:11:33.847Z,20.23
2023-02-17T19:14:03.098Z,20.73
2023-02-17T19:16:33.582Z,21.73
2023-02-17T19:19:03.460Z,21.30
2023-02-17T19:21:31.876Z,19.70
2023-02-17T19:24:00.986Z,20.67
2023-02-17T19:26:29.476Z,22.23
2023-02-17T19:28:57.815Z,20.57
2023-02-17T19:31:26.325Z,20.57
2023-02-17T19:33:54.780Z,21.17
2023-02-17T19:36:24.868Z,21.73
2023-02-17T19:38:53.303Z,18.97
2023-02-17T19:41:21.850Z,20.37
2023-02-17T19:43:50.883Z,19.80
2023-02-17T19:46:22.915Z,18.87
2023-02-17T19:48:51.610Z,18.67
2023-02-17T19:51:20.600Z,19.13
2023-02-17T19:53:51.532Z,19.73
2023-02-17T19:56:22.296Z,20.50
2023-02-17T19:58:51.673Z,19.27
2023-02-17T20:01:23.605Z,18.73
2023-02-17T20:03:54.854Z,19.53
2023-02-17T20:06:26.148Z,19.63
2023-02-17T20:08:58.230Z,17.80
2023-02-17T20:11:30.086Z,16.67
2023-02-17T20:13:59.547Z,15.90
2023-02-17T20:16:28.831Z,17.10
2023-02-17T20:18:57.517Z,17.67
2023-02-17T20:21:28.408Z,16.33
2023-02-17T20:23:58.831Z,17.07
2023-02-17T20:26:29.450Z,16.83
2023-02-17T20:28:58.639Z,16.40
2023-02-17T20:31:28.604Z,16.63
2023-02-17T20:33:57.119Z,17.00
2023-02-17T20:36:25.439Z,15.50
2023-02-17T20:38:53.893Z,15.87
2023-02-17T20:41:24.512Z,15.23
2023-02-17T20:43:53.736Z,15.17
2023-02-17T20:46:25.554Z,15.30
2023-02-17T20:48:55.951Z,14.77
2023-02-17T20:51:25.147Z,15.23
2023-02-17T20:53:53.606Z,15.07
2023-02-17T20:56:25.671Z,16.53
2023-02-17T20:58:55.579Z,15.40
2023-02-17T21:01:23.980Z,16.07
2023-02-17T21:03:52.306Z,16.00
2023-02-17T21:06:24.084Z,16.57
2023-02-17T21:08:55.847Z,15.27
2023-02-17T21:11:25.905Z,15.53
2023-02-17T21:13:54.426Z,15.30
2023-02-17T21:16:24.382Z,15.63
2023-02-17T21:18:52.849Z,14.97
2023-02-17T21:21:21.468Z,14.97
2023-02-17T21:23:49.997Z,14.93
2023-02-17T21:26:18.811Z,15.03
2023-02-17T21:28:48.754Z,14.97
2023-02-17T21:31:17.804Z,15.23
2023-02-17T21:33:46.415Z,14.43
2023-02-17T21:36:17.281Z,13.40
2023-02-17T21:38:46.022Z,13.70
2023-02-17T21:41:16.950Z,14.40
2023-02-17T21:44:03.629Z,14.73
2023-02-17T21:46:33.934Z,13.57
2023-02-17T21:49:03.452Z,15.30
2023-02-17T21:51:32.067Z,15.03
2023-02-17T21:54:00.417Z,15.57
2023-02-17T21:56:28.894Z,14.50
2023-02-17T21:58:57.478Z,14.13
2023-02-17T22:01:27.639Z,13.70
2023-02-17T22:03:57.778Z,14.80
2023-02-17T22:06:28.686Z,16.10
2023-02-17T22:08:57.722Z,15.23
2023-02-17T22:11:28.483Z,14.83
2023-02-17T22:13:58.084Z,15.23
2023-02-17T22:16:26.642Z,14.20
2023-02-17T22:18:56.443Z,14.97
2023-02-17T22:21:24.796Z,14.63
2023-02-17T22:23:53.334Z,14.97
2023-02-17T22:26:24.592Z,14.47
2023-02-17T22:28:54.166Z,13.80
2023-02-17T22:31:25.039Z,13.43
2023-02-17T22:33:53.582Z,13.93
2023-02-17T22:36:24.518Z,13.07
2023-02-17T22:38:54.091Z,16.17
2023-02-17T22:41:24.645Z,12.80
2023-02-17T22:43:54.031Z,16.47
2023-02-17T22:46:23.938Z,11.97
2023-02-17T22:48:53.754Z,12.40
2023-02-17T22:51:25.870Z,13.37
2023-02-17T22:53:55.935Z,13.37
2023-02-17T22:56:24.350Z,12.30
2023-02-17T22:58:56.584Z,12.87
2023-02-17T23:01:26.299Z,12.30
2023-02-17T23:03:55.223Z,12.13
2023-02-17T23:06:27.368Z,12.33
2023-02-17T23:08:56.394Z,12.67
2023-02-17T23:11:40.102Z,11.53
2023-02-17T23:14:09.809Z,12.17
2023-02-17T23:16:38.858Z,12.30
2023-02-17T23:19:08.950Z,11.57
2023-02-17T23:21:39.228Z,11.10
2023-02-17T23:24:08.161Z,11.70
2023-02-17T23:26:36.554Z,12.30
2023-02-17T23:29:04.961Z,12.73
2023-02-17T23:31:34.141Z,11.87
2023-02-17T23:34:02.542Z,12.43
2023-02-17T23:36:30.969Z,12.30
2023-02-17T23:39:01.460Z,11.90
2023-02-17T23:41:30.055Z,11.80
2023-02-17T23:43:58.368Z,11.80
2023-02-17T23:46:26.865Z,12.10
2023-02-17T23:48:55.222Z,12.67
2023-02-17T23:51:23.647Z,11.83
2023-02-17T23:53:52.231Z,11.67
2023-02-17T23:56:23.507Z,11.73
2023-02-17T23:58:51.836Z,11.97
